sensor_id;sensor_type;location;lat;lon;timestamp;P1;durP1;ratioP1;P2;durP2;ratioP2
19402;SDS011;9837;48.888;8.998;2022-11-20T06:02:55;2.87;;;2.30;;
19402;SDS011;9837;48.888;8.998;2022-11-20T06:05:21;2.90;;;2.20;;
19402;SDS011;9837;48.888;8.998;2022-11-20T06:07:46;2.43;;;1.93;;
19402;SDS011;9837;48.888;8.998;2022-11-20T06:10:12;2.00;;;1.80;;
19402;SDS011;9837;48.888;8.998;2022-11-20T06:12:38;2.97;;;2.27;;
19402;SDS011;9837;48.888;8.998;2022-11-20T06:15:04;3.50;;;1.97;;
19402;SDS011;9837;48.888;8.998;2022-11-20T06:17:30;1.80;;;1.70;;
19402;SDS011;9837;48.888;8.998;2022-11-20T06:19:56;4.37;;;2.30;;
19402;SDS011;9837;48.888;8.998;2022-11-20T06:22:22;3.37;;;2.23;;
19402;SDS011;9837;48.888;8.998;2022-11-20T06:24:47;2.70;;;2.20;;
19402;SDS011;9837;48.888;8.998;2022-11-20T06:27:13;1.97;;;1.87;;
19402;SDS011;9837;48.888;8.998;2022-11-20T06:29:38;2.80;;;1.67;;
19402;SDS011;9837;48.888;8.998;2022-11-20T06:32:04;2.43;;;1.70;;
19402;SDS011;9837;48.888;8.998;2022-11-20T06:34:30;1.97;;;1.67;;
19402;SDS011;9837;48.888;8.998;2022-11-20T06:36:55;1.67;;;1.53;;
19402;SDS011;9837;48.888;8.998;2022-11-20T06:39:21;3.87;;;1.97;;
19402;SDS011;9837;48.888;8.998;2022-11-20T06:41:47;3.63;;;1.60;;
19402;SDS011;9837;48.888;8.998;2022-11-20T06:44:12;2.20;;;1.70;;
19402;SDS011;9837;48.888;8.998;2022-11-20T06:46:38;2.33;;;1.97;;
19402;SDS011;9837;48.888;8.998;2022-11-20T06:49:04;1.80;;;1.70;;
19402;SDS011;9837;48.888;8.998;2022-11-20T06:51:30;2.07;;;1.60;;
19402;SDS011;9837;48.888;8.998;2022-11-20T06:53:55;1.93;;;1.77;;
19402;SDS011;9837;48.888;8.998;2022-11-20T06:56:21;2.63;;;1.50;;
19402;SDS011;9837;48.888;8.998;2022-11-20T06:58:46;1.70;;;1.60;;
19402;SDS011;9837;48.888;8.998;2022-11-20T07:01:13;1.77;;;1.53;;
19402;SDS011;9837;48.888;8.998;2022-11-20T07:03:40;2.00;;;1.43;;
19402;SDS011;9837;48.888;8.998;2022-11-20T07:06:06;1.83;;;1.50;;
19402;SDS011;9837;48.888;8.998;2022-11-20T07:08:32;2.23;;;1.53;;
19402;SDS011;9837;48.888;8.998;2022-11-20T07:11:02;1.57;;;1.47;;
19402;SDS011;9837;48.888;8.998;2022-11-20T07:13:30;1.70;;;1.60;;
19402;SDS011;9837;48.888;8.998;2022-11-20T07:15:58;2.07;;;1.60;;
19402;SDS011;9837;48.888;8.998;2022-11-20T07:18:28;2.77;;;1.77;;
19402;SDS011;9837;48.888;8.998;2022-11-20T07:20:54;1.23;;;1.13;;
19402;SDS011;9837;48.888;8.998;2022-11-20T07:23:20;1.70;;;1.50;;
19402;SDS011;9837;48.888;8.998;2022-11-20T07:25:45;3.23;;;1.50;;
19402;SDS011;9837;48.888;8.998;2022-11-20T07:28:11;4.83;;;1.30;;
19402;SDS011;9837;48.888;8.998;2022-11-20T07:30:36;2.40;;;1.63;;
19402;SDS011;9837;48.888;8.998;2022-11-20T07:33:02;1.77;;;1.67;;
19402;SDS011;9837;48.888;8.998;2022-11-20T07:35:28;1.90;;;1.50;;
19402;SDS011;9837;48.888;8.998;2022-11-20T07:37:54;1.40;;;1.30;;
19402;SDS011;9837;48.888;8.998;2022-11-20T07:40:19;3.37;;;1.57;;
19402;SDS011;9837;48.888;8.998;2022-11-20T07:42:52;3.13;;;1.57;;
19402;SDS011;9837;48.888;8.998;2022-11-20T07:45:19;3.43;;;1.37;;
19402;SDS011;9837;48.888;8.998;2022-11-20T07:47:46;3.97;;;1.73;;
19402;SDS011;9837;48.888;8.998;2022-11-20T07:50:12;4.80;;;1.87;;
19402;SDS011;9837;48.888;8.998;2022-11-20T07:52:39;4.40;;;1.43;;
19402;SDS011;9837;48.888;8.998;2022-11-20T07:55:05;1.67;;;1.30;;
19402;SDS011;9837;48.888;8.998;2022-11-20T07:57:31;1.43;;;1.33;;
19402;SDS011;9837;48.888;8.998;2022-11-20T07:59:57;2.87;;;1.40;;
19402;SDS011;9837;48.888;8.998;2022-11-20T08:02:23;3.93;;;1.03;;
19402;SDS011;9837;48.888;8.998;2022-11-20T08:04:48;1.37;;;1.27;;
19402;SDS011;9837;48.888;8.998;2022-11-20T08:07:14;1.83;;;1.20;;
19402;SDS011;9837;48.888;8.998;2022-11-20T08:09:40;1.50;;;1.40;;
19402;SDS011;9837;48.888;8.998;2022-11-20T08:12:06;0.87;;;0.87;;
19402;SDS011;9837;48.888;8.998;2022-11-20T08:14:50;3.00;;;1.20;;
19402;SDS011;9837;48.888;8.998;2022-11-20T08:17:16;1.57;;;1.10;;
19402;SDS011;9837;48.888;8.998;2022-11-20T08:19:42;1.23;;;1.13;;
19402;SDS011;9837;48.888;8.998;2022-11-20T08:22:07;1.30;;;1.20;;
19402;SDS011;9837;48.888;8.998;2022-11-20T08:24:33;3.17;;;1.40;;
19402;SDS011;9837;48.888;8.998;2022-11-20T08:26:59;1.10;;;1.00;;
19402;SDS011;9837;48.888;8.998;2022-11-20T08:29:27;0.80;;;0.80;;
19402;SDS011;9837;48.888;8.998;2022-11-20T08:31:53;0.90;;;0.90;;
19402;SDS011;9837;48.888;8.998;2022-11-20T08:34:19;0.80;;;0.80;;
19402;SDS011;9837;48.888;8.998;2022-11-20T08:36:44;1.37;;;1.27;;
19402;SDS011;9837;48.888;8.998;2022-11-20T08:39:11;1.60;;;1.50;;
19402;SDS011;9837;48.888;8.998;2022-11-20T08:41:37;1.03;;;0.90;;
19402;SDS011;9837;48.888;8.998;2022-11-20T08:44:04;0.80;;;0.80;;
19402;SDS011;9837;48.888;8.998;2022-11-20T08:46:36;0.90;;;0.90;;
19402;SDS011;9837;48.888;8.998;2022-11-20T08:49:03;1.00;;;1.00;;
19402;SDS011;9837;48.888;8.998;2022-11-20T08:51:30;1.00;;;0.87;;
19402;SDS011;9837;48.888;8.998;2022-11-20T08:53:56;0.90;;;0.90;;
19402;SDS011;9837;48.888;8.998;2022-11-20T08:56:22;0.87;;;0.87;;
19402;SDS011;9837;48.888;8.998;2022-11-20T08:58:49;1.03;;;0.87;;
19402;SDS011;9837;48.888;8.998;2022-11-20T09:01:16;1.10;;;1.00;;
19402;SDS011;9837;48.888;8.998;2022-11-20T09:03:42;1.10;;;1.00;;
19402;SDS011;9837;48.888;8.998;2022-11-20T09:06:07;1.20;;;1.10;;
19402;SDS011;9837;48.888;8.998;2022-11-20T09:08:33;1.13;;;1.00;;
19402;SDS011;9837;48.888;8.998;2022-11-20T09:11:01;4.47;;;1.17;;
19402;SDS011;9837;48.888;8.998;2022-11-20T09:13:27;1.20;;;1.10;;
19402;SDS011;9837;48.888;8.998;2022-11-20T09:15:57;1.57;;;1.13;;
19402;SDS011;9837;48.888;8.998;2022-11-20T09:18:25;3.00;;;1.70;;
19402;SDS011;9837;48.888;8.998;2022-11-20T09:20:51;1.30;;;1.20;;
19402;SDS011;9837;48.888;8.998;2022-11-20T09:23:17;2.40;;;1.07;;
19402;SDS011;9837;48.888;8.998;2022-11-20T09:25:43;1.20;;;1.10;;
19402;SDS011;9837;48.888;8.998;2022-11-20T09:28:09;1.07;;;1.00;;
19402;SDS011;9837;48.888;8.998;2022-11-20T09:30:34;1.20;;;1.10;;
19402;SDS011;9837;48.888;8.998;2022-11-20T09:33:00;1.33;;;1.23;;
19402;SDS011;9837;48.888;8.998;2022-11-20T09:35:25;1.47;;;1.37;;
19402;SDS011;9837;48.888;8.998;2022-11-20T09:37:51;2.93;;;1.60;;
19402;SDS011;9837;48.888;8.998;2022-11-20T09:40:19;1.83;;;1.47;;
19402;SDS011;9837;48.888;8.998;2022-11-20T09:45:54;2.57;;;2.10;;
19402;SDS011;9837;48.888;8.998;2022-11-20T09:56:39;3.43;;;2.63;;
19402;SDS011;9837;48.888;8.998;2022-11-20T09:59:07;2.87;;;2.37;;
19402;SDS011;9837;48.888;8.998;2022-11-20T10:01:43;2.53;;;2.33;;
19402;SDS011;9837;48.888;8.998;2022-11-20T10:07:02;1.80;;;1.70;;
19402;SDS011;9837;48.888;8.998;2022-11-20T10:09:38;2.40;;;1.70;;
19402;SDS011;9837;48.888;8.998;2022-11-20T10:31:10;1.73;;;1.20;;
19402;SDS011;9837;48.888;8.998;2022-11-20T10:33:43;1.30;;;1.20;;
19402;SDS011;9837;48.888;8.998;2022-11-20T10:36:19;2.70;;;1.63;;
19402;SDS011;9837;48.888;8.998;2022-11-20T10:41:34;2.13;;;1.93;;
19402;SDS011;9837;48.888;8.998;2022-11-20T10:44:49;3.07;;;2.30;;
19402;SDS011;9837;48.888;8.998;2022-11-20T10:47:14;3.07;;;2.40;;
19402;SDS011;9837;48.888;8.998;2022-11-20T10:49:41;4.97;;;2.63;;
19402;SDS011;9837;48.888;8.998;2022-11-20T10:52:13;2.60;;;2.40;;
19402;SDS011;9837;48.888;8.998;2022-11-20T11:00:25;4.17;;;2.83;;
19402;SDS011;9837;48.888;8.998;2022-11-20T11:02:54;2.63;;;2.00;;
19402;SDS011;9837;48.888;8.998;2022-11-20T11:05:27;2.97;;;2.50;;
19402;SDS011;9837;48.888;8.998;2022-11-20T11:07:55;2.37;;;2.17;;
19402;SDS011;9837;48.888;8.998;2022-11-20T11:13:26;4.63;;;2.43;;
19402;SDS011;9837;48.888;8.998;2022-11-20T11:15:54;5.77;;;2.40;;
19402;SDS011;9837;48.888;8.998;2022-11-20T11:18:30;4.63;;;2.20;;
19402;SDS011;9837;48.888;8.998;2022-11-20T11:20:58;2.47;;;2.17;;
19402;SDS011;9837;48.888;8.998;2022-11-20T11:23:29;3.70;;;2.40;;
19402;SDS011;9837;48.888;8.998;2022-11-20T11:26:02;3.53;;;2.47;;
19402;SDS011;9837;48.888;8.998;2022-11-20T11:28:29;3.93;;;2.33;;
19402;SDS011;9837;48.888;8.998;2022-11-20T11:30:55;2.10;;;1.90;;
19402;SDS011;9837;48.888;8.998;2022-11-20T11:33:22;4.30;;;2.23;;
19402;SDS011;9837;48.888;8.998;2022-11-20T11:36:04;2.33;;;1.70;;
19402;SDS011;9837;48.888;8.998;2022-11-20T11:38:50;6.00;;;1.77;;
19402;SDS011;9837;48.888;8.998;2022-11-20T11:41:22;3.23;;;2.07;;
19402;SDS011;9837;48.888;8.998;2022-11-20T11:43:56;3.20;;;1.97;;
19402;SDS011;9837;48.888;8.998;2022-11-20T11:46:54;3.73;;;1.73;;
19402;SDS011;9837;48.888;8.998;2022-11-20T11:49:21;2.60;;;1.70;;
19402;SDS011;9837;48.888;8.998;2022-11-20T11:54:24;4.57;;;1.70;;
19402;SDS011;9837;48.888;8.998;2022-11-20T11:56:53;2.93;;;1.73;;
19402;SDS011;9837;48.888;8.998;2022-11-20T11:59:25;3.60;;;1.60;;
19402;SDS011;9837;48.888;8.998;2022-11-20T12:01:59;2.33;;;1.30;;
19402;SDS011;9837;48.888;8.998;2022-11-20T12:04:46;3.47;;;1.90;;
19402;SDS011;9837;48.888;8.998;2022-11-20T12:07:35;1.73;;;1.50;;
19402;SDS011;9837;48.888;8.998;2022-11-20T12:10:09;1.57;;;1.30;;
19402;SDS011;9837;48.888;8.998;2022-11-20T12:12:45;2.13;;;1.40;;
19402;SDS011;9837;48.888;8.998;2022-11-20T12:15:28;2.97;;;1.57;;
19402;SDS011;9837;48.888;8.998;2022-11-20T12:17:55;3.13;;;1.60;;
19402;SDS011;9837;48.888;8.998;2022-11-20T12:20:22;2.00;;;1.40;;
19402;SDS011;9837;48.888;8.998;2022-11-20T12:22:59;3.00;;;1.47;;
19402;SDS011;9837;48.888;8.998;2022-11-20T12:25:35;2.53;;;1.30;;
19402;SDS011;9837;48.888;8.998;2022-11-20T12:50:32;1.50;;;1.07;;
19402;SDS011;9837;48.888;8.998;2022-11-20T12:53:02;3.10;;;1.27;;
19402;SDS011;9837;48.888;8.998;2022-11-20T12:55:46;2.97;;;1.10;;
19402;SDS011;9837;48.888;8.998;2022-11-20T13:01:02;1.97;;;1.10;;
19402;SDS011;9837;48.888;8.998;2022-11-20T13:04:18;3.03;;;1.40;;
19402;SDS011;9837;48.888;8.998;2022-11-20T13:06:56;2.80;;;1.20;;
19402;SDS011;9837;48.888;8.998;2022-11-20T13:09:23;2.30;;;1.30;;
19402;SDS011;9837;48.888;8.998;2022-11-20T13:14:47;1.73;;;1.40;;
19402;SDS011;9837;48.888;8.998;2022-11-20T13:17:35;10.73;;;2.07;;
19402;SDS011;9837;48.888;8.998;2022-11-20T13:20:05;1.43;;;1.20;;
19402;SDS011;9837;48.888;8.998;2022-11-20T13:22:47;2.77;;;1.47;;
19402;SDS011;9837;48.888;8.998;2022-11-20T13:25:25;3.10;;;1.33;;
19402;SDS011;9837;48.888;8.998;2022-11-20T13:27:51;2.53;;;1.33;;
19402;SDS011;9837;48.888;8.998;2022-11-20T13:30:19;2.63;;;1.50;;
19402;SDS011;9837;48.888;8.998;2022-11-20T13:32:58;2.97;;;1.50;;
19402;SDS011;9837;48.888;8.998;2022-11-20T13:35:32;3.07;;;1.40;;
19402;SDS011;9837;48.888;8.998;2022-11-20T13:38:01;2.67;;;1.07;;
19402;SDS011;9837;48.888;8.998;2022-11-20T13:40:30;1.43;;;1.30;;
19402;SDS011;9837;48.888;8.998;2022-11-20T13:43:01;3.33;;;1.47;;
19402;SDS011;9837;48.888;8.998;2022-11-20T13:45:35;1.17;;;0.87;;
19402;SDS011;9837;48.888;8.998;2022-11-20T13:48:05;3.33;;;1.40;;
19402;SDS011;9837;48.888;8.998;2022-11-20T13:50:56;3.07;;;1.60;;
19402;SDS011;9837;48.888;8.998;2022-11-20T13:53:49;0.70;;;0.70;;
19402;SDS011;9837;48.888;8.998;2022-11-20T13:56:44;0.97;;;0.90;;
19402;SDS011;9837;48.888;8.998;2022-11-20T14:02:26;1.03;;;0.90;;
19402;SDS011;9837;48.888;8.998;2022-11-20T14:04:56;2.20;;;1.20;;
19402;SDS011;9837;48.888;8.998;2022-11-20T14:07:27;2.17;;;1.10;;
19402;SDS011;9837;48.888;8.998;2022-11-20T14:10:22;2.60;;;1.43;;
19402;SDS011;9837;48.888;8.998;2022-11-20T14:12:50;3.43;;;1.37;;
19402;SDS011;9837;48.888;8.998;2022-11-20T14:15:30;1.60;;;1.17;;
19402;SDS011;9837;48.888;8.998;2022-11-20T14:17:57;1.20;;;1.10;;
19402;SDS011;9837;48.888;8.998;2022-11-20T14:20:27;0.93;;;0.93;;
19402;SDS011;9837;48.888;8.998;2022-11-20T14:22:56;2.17;;;1.17;;
19402;SDS011;9837;48.888;8.998;2022-11-20T14:25:23;1.30;;;1.20;;
19402;SDS011;9837;48.888;8.998;2022-11-20T14:27:59;2.83;;;1.40;;
19402;SDS011;9837;48.888;8.998;2022-11-20T14:30:45;0.80;;;0.80;;
19402;SDS011;9837;48.888;8.998;2022-11-20T14:33:12;1.30;;;1.13;;
19402;SDS011;9837;48.888;8.998;2022-11-20T14:35:46;4.13;;;1.77;;
19402;SDS011;9837;48.888;8.998;2022-11-20T14:38:14;1.40;;;1.17;;
19402;SDS011;9837;48.888;8.998;2022-11-20T14:40:41;1.93;;;1.30;;
19402;SDS011;9837;48.888;8.998;2022-11-20T14:45:54;3.73;;;1.33;;
19402;SDS011;9837;48.888;8.998;2022-11-20T14:49:08;2.33;;;1.13;;
19402;SDS011;9837;48.888;8.998;2022-11-20T14:56:38;5.97;;;1.53;;
19402;SDS011;9837;48.888;8.998;2022-11-20T14:59:04;1.10;;;1.00;;
19402;SDS011;9837;48.888;8.998;2022-11-20T15:01:30;2.50;;;1.50;;
19402;SDS011;9837;48.888;8.998;2022-11-20T15:04:01;3.17;;;1.63;;
19402;SDS011;9837;48.888;8.998;2022-11-20T15:06:37;1.87;;;1.40;;
19402;SDS011;9837;48.888;8.998;2022-11-20T15:09:03;1.60;;;1.30;;
19402;SDS011;9837;48.888;8.998;2022-11-20T15:11:33;2.73;;;1.30;;
19402;SDS011;9837;48.888;8.998;2022-11-20T15:14:04;3.30;;;1.70;;
19402;SDS011;9837;48.888;8.998;2022-11-20T15:16:31;3.80;;;1.47;;
19402;SDS011;9837;48.888;8.998;2022-11-20T15:18:58;2.00;;;1.23;;
19402;SDS011;9837;48.888;8.998;2022-11-20T15:21:25;1.63;;;1.20;;
19402;SDS011;9837;48.888;8.998;2022-11-20T15:23:54;2.07;;;1.47;;
19402;SDS011;9837;48.888;8.998;2022-11-20T15:26:22;1.47;;;1.17;;
19402;SDS011;9837;48.888;8.998;2022-11-20T15:28:50;2.60;;;1.63;;
19402;SDS011;9837;48.888;8.998;2022-11-20T15:31:21;5.27;;;2.57;;
19402;SDS011;9837;48.888;8.998;2022-11-20T15:33:48;5.00;;;2.43;;
19402;SDS011;9837;48.888;8.998;2022-11-20T15:36:14;2.57;;;2.00;;
19402;SDS011;9837;48.888;8.998;2022-11-20T15:38:40;3.73;;;2.27;;
19402;SDS011;9837;48.888;8.998;2022-11-20T15:41:06;1.77;;;1.50;;
19402;SDS011;9837;48.888;8.998;2022-11-20T15:43:32;2.93;;;1.83;;
19402;SDS011;9837;48.888;8.998;2022-11-20T15:46:02;3.03;;;1.93;;
19402;SDS011;9837;48.888;8.998;2022-11-20T15:48:38;4.93;;;2.53;;
19402;SDS011;9837;48.888;8.998;2022-11-20T15:53:49;6.97;;;1.80;;
19402;SDS011;9837;48.888;8.998;2022-11-20T15:56:15;2.13;;;1.37;;
19402;SDS011;9837;48.888;8.998;2022-11-20T15:58:41;2.73;;;1.63;;
19402;SDS011;9837;48.888;8.998;2022-11-20T16:01:14;4.00;;;1.60;;
19402;SDS011;9837;48.888;8.998;2022-11-20T16:03:42;5.33;;;1.83;;
19402;SDS011;9837;48.888;8.998;2022-11-20T16:06:08;3.97;;;1.90;;
19402;SDS011;9837;48.888;8.998;2022-11-20T16:08:34;5.93;;;2.20;;
19402;SDS011;9837;48.888;8.998;2022-11-20T16:11:00;2.90;;;1.60;;
19402;SDS011;9837;48.888;8.998;2022-11-20T16:13:26;1.77;;;1.60;;
19402;SDS011;9837;48.888;8.998;2022-11-20T16:16:21;1.30;;;1.20;;
19402;SDS011;9837;48.888;8.998;2022-11-20T16:18:49;3.00;;;1.57;;
19402;SDS011;9837;48.888;8.998;2022-11-20T16:21:15;1.93;;;1.60;;
19402;SDS011;9837;48.888;8.998;2022-11-20T16:23:41;5.13;;;2.57;;
19402;SDS011;9837;48.888;8.998;2022-11-20T16:26:16;4.17;;;1.77;;
19402;SDS011;9837;48.888;8.998;2022-11-20T16:28:43;3.87;;;2.93;;
19402;SDS011;9837;48.888;8.998;2022-11-20T16:31:10;8.30;;;4.63;;
19402;SDS011;9837;48.888;8.998;2022-11-20T16:33:37;12.97;;;8.43;;
19402;SDS011;9837;48.888;8.998;2022-11-20T16:36:11;4.57;;;3.10;;
19402;SDS011;9837;48.888;8.998;2022-11-20T16:38:38;3.40;;;2.20;;
19402;SDS011;9837;48.888;8.998;2022-11-20T16:41:04;2.57;;;2.37;;
19402;SDS011;9837;48.888;8.998;2022-11-20T16:43:30;4.97;;;2.23;;
19402;SDS011;9837;48.888;8.998;2022-11-20T16:45:56;6.47;;;2.97;;
19402;SDS011;9837;48.888;8.998;2022-11-20T16:48:22;5.27;;;2.50;;
19402;SDS011;9837;48.888;8.998;2022-11-20T16:50:49;5.20;;;2.40;;
19402;SDS011;9837;48.888;8.998;2022-11-20T16:53:17;6.63;;;1.97;;
19402;SDS011;9837;48.888;8.998;2022-11-20T16:55:43;5.90;;;2.63;;
19402;SDS011;9837;48.888;8.998;2022-11-20T16:58:09;3.73;;;2.67;;
19402;SDS011;9837;48.888;8.998;2022-11-20T17:00:36;5.77;;;2.70;;
19402;SDS011;9837;48.888;8.998;2022-11-20T17:03:03;5.70;;;2.57;;
19402;SDS011;9837;48.888;8.998;2022-11-20T17:05:30;2.73;;;2.07;;
19402;SDS011;9837;48.888;8.998;2022-11-20T17:07:57;5.27;;;2.17;;
19402;SDS011;9837;48.888;8.998;2022-11-20T17:10:23;2.70;;;1.90;;
19402;SDS011;9837;48.888;8.998;2022-11-20T17:12:49;2.40;;;1.83;;
19402;SDS011;9837;48.888;8.998;2022-11-20T17:15:15;1.73;;;1.57;;
19402;SDS011;9837;48.888;8.998;2022-11-20T17:17:42;2.70;;;2.30;;
19402;SDS011;9837;48.888;8.998;2022-11-20T17:20:08;3.50;;;2.00;;
19402;SDS011;9837;48.888;8.998;2022-11-20T17:22:34;6.93;;;2.10;;
19402;SDS011;9837;48.888;8.998;2022-11-20T17:25:00;3.63;;;2.27;;
19402;SDS011;9837;48.888;8.998;2022-11-20T17:27:26;2.60;;;1.87;;
19402;SDS011;9837;48.888;8.998;2022-11-20T17:29:52;2.80;;;1.90;;
19402;SDS011;9837;48.888;8.998;2022-11-20T17:32:19;4.17;;;2.07;;
19402;SDS011;9837;48.888;8.998;2022-11-20T17:34:45;6.57;;;3.00;;
19402;SDS011;9837;48.888;8.998;2022-11-20T17:37:11;4.50;;;2.47;;
19402;SDS011;9837;48.888;8.998;2022-11-20T17:39:37;3.60;;;2.30;;
19402;SDS011;9837;48.888;8.998;2022-11-20T17:42:04;4.57;;;2.03;;
19402;SDS011;9837;48.888;8.998;2022-11-20T17:44:48;2.37;;;2.10;;
19402;SDS011;9837;48.888;8.998;2022-11-20T17:47:14;3.50;;;2.20;;
19402;SDS011;9837;48.888;8.998;2022-11-20T17:49:40;5.20;;;2.30;;
19402;SDS011;9837;48.888;8.998;2022-11-20T17:52:06;4.63;;;2.80;;
19402;SDS011;9837;48.888;8.998;2022-11-20T17:54:32;9.83;;;4.50;;
19402;SDS011;9837;48.888;8.998;2022-11-20T17:56:59;3.67;;;2.87;;
19402;SDS011;9837;48.888;8.998;2022-11-20T17:59:43;3.07;;;2.20;;
19402;SDS011;9837;48.888;8.998;2022-11-20T18:02:09;3.70;;;2.30;;
19402;SDS011;9837;48.888;8.998;2022-11-20T18:04:35;4.73;;;2.00;;
19402;SDS011;9837;48.888;8.998;2022-11-20T18:07:02;3.03;;;2.03;;
19402;SDS011;9837;48.888;8.998;2022-11-20T18:09:28;4.07;;;2.00;;
19402;SDS011;9837;48.888;8.998;2022-11-20T18:11:54;2.57;;;2.13;;
19402;SDS011;9837;48.888;8.998;2022-11-20T18:14:20;2.47;;;1.80;;
19402;SDS011;9837;48.888;8.998;2022-11-20T18:17:06;3.97;;;2.30;;
19402;SDS011;9837;48.888;8.998;2022-11-20T18:19:39;2.80;;;2.00;;
19402;SDS011;9837;48.888;8.998;2022-11-20T18:22:06;2.93;;;2.40;;
19402;SDS011;9837;48.888;8.998;2022-11-20T18:24:33;3.57;;;2.27;;
19402;SDS011;9837;48.888;8.998;2022-11-20T18:27:04;4.30;;;2.30;;
19402;SDS011;9837;48.888;8.998;2022-11-20T18:29:31;4.00;;;2.10;;
19402;SDS011;9837;48.888;8.998;2022-11-20T18:31:58;2.37;;;1.70;;
19402;SDS011;9837;48.888;8.998;2022-11-20T18:34:24;2.03;;;1.73;;
19402;SDS011;9837;48.888;8.998;2022-11-20T18:36:50;3.83;;;1.90;;
19402;SDS011;9837;48.888;8.998;2022-11-20T18:39:16;4.50;;;2.67;;
19402;SDS011;9837;48.888;8.998;2022-11-20T18:41:43;3.73;;;2.60;;
19402;SDS011;9837;48.888;8.998;2022-11-20T18:44:28;2.77;;;2.30;;
19402;SDS011;9837;48.888;8.998;2022-11-20T18:47:15;2.17;;;1.73;;
19402;SDS011;9837;48.888;8.998;2022-11-20T18:49:43;3.37;;;2.30;;
19402;SDS011;9837;48.888;8.998;2022-11-20T18:52:24;5.03;;;2.40;;
19402;SDS011;9837;48.888;8.998;2022-11-20T18:54:51;4.53;;;2.00;;
19402;SDS011;9837;48.888;8.998;2022-11-20T18:57:18;4.77;;;2.30;;
19402;SDS011;9837;48.888;8.998;2022-11-20T18:59:45;4.87;;;2.13;;
19402;SDS011;9837;48.888;8.998;2022-11-20T19:02:13;7.00;;;3.33;;
19402;SDS011;9837;48.888;8.998;2022-11-20T19:04:40;3.40;;;2.47;;
19402;SDS011;9837;48.888;8.998;2022-11-20T19:07:06;4.20;;;2.80;;
19402;SDS011;9837;48.888;8.998;2022-11-20T19:09:33;5.97;;;4.33;;
19402;SDS011;9837;48.888;8.998;2022-11-20T19:11:59;3.80;;;2.20;;
19402;SDS011;9837;48.888;8.998;2022-11-20T19:17:01;4.63;;;4.33;;
19402;SDS011;9837;48.888;8.998;2022-11-20T19:19:30;3.30;;;2.10;;
19402;SDS011;9837;48.888;8.998;2022-11-20T19:21:57;5.23;;;1.90;;
19402;SDS011;9837;48.888;8.998;2022-11-20T19:24:23;3.17;;;2.70;;
19402;SDS011;9837;48.888;8.998;2022-11-20T19:27:11;3.37;;;1.83;;
19402;SDS011;9837;48.888;8.998;2022-11-20T19:29:38;2.37;;;1.73;;
19402;SDS011;9837;48.888;8.998;2022-11-20T19:32:04;2.60;;;1.90;;
19402;SDS011;9837;48.888;8.998;2022-11-20T19:34:31;2.00;;;1.80;;
19402;SDS011;9837;48.888;8.998;2022-11-20T19:37:03;1.83;;;1.70;;
19402;SDS011;9837;48.888;8.998;2022-11-20T19:39:34;1.50;;;1.40;;
19402;SDS011;9837;48.888;8.998;2022-11-20T19:42:03;3.63;;;2.00;;
19402;SDS011;9837;48.888;8.998;2022-11-20T19:44:29;1.77;;;1.67;;
19402;SDS011;9837;48.888;8.998;2022-11-20T19:46:58;1.40;;;1.30;;
19402;SDS011;9837;48.888;8.998;2022-11-20T19:49:28;2.70;;;1.63;;
19402;SDS011;9837;48.888;8.998;2022-11-20T19:52:14;1.73;;;1.63;;
19402;SDS011;9837;48.888;8.998;2022-11-20T19:54:40;5.43;;;1.70;;
19402;SDS011;9837;48.888;8.998;2022-11-20T19:57:09;3.27;;;2.33;;
19402;SDS011;9837;48.888;8.998;2022-11-20T19:59:35;1.60;;;1.50;;
19402;SDS011;9837;48.888;8.998;2022-11-20T20:02:02;1.43;;;1.33;;
19402;SDS011;9837;48.888;8.998;2022-11-20T20:04:28;2.97;;;1.70;;
19402;SDS011;9837;48.888;8.998;2022-11-20T20:06:57;1.50;;;1.40;;
19402;SDS011;9837;48.888;8.998;2022-11-20T20:09:24;1.57;;;1.40;;
19402;SDS011;9837;48.888;8.998;2022-11-20T20:12:05;2.13;;;1.20;;
19402;SDS011;9837;48.888;8.998;2022-11-20T20:14:31;0.90;;;0.90;;
19402;SDS011;9837;48.888;8.998;2022-11-20T20:16:58;1.37;;;1.20;;
19402;SDS011;9837;48.888;8.998;2022-11-20T20:19:24;1.30;;;1.20;;
19402;SDS011;9837;48.888;8.998;2022-11-20T20:21:51;1.57;;;1.23;;
19402;SDS011;9837;48.888;8.998;2022-11-20T20:24:17;1.20;;;1.10;;
19402;SDS011;9837;48.888;8.998;2022-11-20T20:26:43;1.30;;;1.20;;
19402;SDS011;9837;48.888;8.998;2022-11-20T20:29:09;0.97;;;0.90;;
19402;SDS011;9837;48.888;8.998;2022-11-20T20:31:35;1.10;;;1.00;;
19402;SDS011;9837;48.888;8.998;2022-11-20T20:34:01;0.73;;;0.73;;
19402;SDS011;9837;48.888;8.998;2022-11-20T20:36:29;0.80;;;0.80;;
19402;SDS011;9837;48.888;8.998;2022-11-20T20:38:55;0.90;;;0.73;;
19402;SDS011;9837;48.888;8.998;2022-11-20T20:41:23;0.63;;;0.63;;
19402;SDS011;9837;48.888;8.998;2022-11-20T20:43:49;0.97;;;0.87;;
19402;SDS011;9837;48.888;8.998;2022-11-20T20:46:34;1.27;;;1.17;;
19402;SDS011;9837;48.888;8.998;2022-11-20T20:49:00;1.27;;;0.80;;
19402;SDS011;9837;48.888;8.998;2022-11-20T20:51:26;1.33;;;1.23;;
19402;SDS011;9837;48.888;8.998;2022-11-20T20:53:53;1.67;;;0.90;;
19402;SDS011;9837;48.888;8.998;2022-11-20T20:56:19;0.70;;;0.70;;
19402;SDS011;9837;48.888;8.998;2022-11-20T20:58:45;0.97;;;0.97;;
19402;SDS011;9837;48.888;8.998;2022-11-20T21:01:15;0.90;;;0.57;;
19402;SDS011;9837;48.888;8.998;2022-11-20T21:03:42;1.07;;;0.97;;
19402;SDS011;9837;48.888;8.998;2022-11-20T21:06:09;0.80;;;0.80;;
19402;SDS011;9837;48.888;8.998;2022-11-20T21:08:36;2.17;;;1.07;;
19402;SDS011;9837;48.888;8.998;2022-11-20T21:11:09;4.10;;;3.00;;
19402;SDS011;9837;48.888;8.998;2022-11-20T21:13:37;1.20;;;1.10;;
19402;SDS011;9837;48.888;8.998;2022-11-20T21:16:04;1.00;;;1.00;;
19402;SDS011;9837;48.888;8.998;2022-11-20T21:18:30;5.57;;;1.03;;
19402;SDS011;9837;48.888;8.998;2022-11-20T21:20:56;1.40;;;1.30;;
19402;SDS011;9837;48.888;8.998;2022-11-20T21:23:44;1.20;;;1.10;;
19402;SDS011;9837;48.888;8.998;2022-11-20T21:26:11;2.00;;;0.73;;
19402;SDS011;9837;48.888;8.998;2022-11-20T21:28:37;2.03;;;1.00;;
19402;SDS011;9837;48.888;8.998;2022-11-20T21:33:51;0.90;;;0.90;;
19402;SDS011;9837;48.888;8.998;2022-11-20T21:36:18;1.00;;;1.00;;
19402;SDS011;9837;48.888;8.998;2022-11-20T21:38:47;1.30;;;1.20;;
19402;SDS011;9837;48.888;8.998;2022-11-20T21:41:14;1.23;;;1.13;;
19402;SDS011;9837;48.888;8.998;2022-11-20T21:43:40;3.70;;;1.53;;
19402;SDS011;9837;48.888;8.998;2022-11-20T21:46:10;1.40;;;1.03;;
19402;SDS011;9837;48.888;8.998;2022-11-20T21:48:37;3.90;;;1.40;;
19402;SDS011;9837;48.888;8.998;2022-11-20T21:51:05;1.27;;;1.17;;
19402;SDS011;9837;48.888;8.998;2022-11-20T21:53:34;1.33;;;1.10;;
19402;SDS011;9837;48.888;8.998;2022-11-20T21:56:00;1.60;;;1.50;;
19402;SDS011;9837;48.888;8.998;2022-11-20T21:58:28;2.77;;;1.90;;
19402;SDS011;9837;48.888;8.998;2022-11-20T22:00:54;2.50;;;1.10;;
19402;SDS011;9837;48.888;8.998;2022-11-20T22:03:23;1.60;;;1.43;;
19402;SDS011;9837;48.888;8.998;2022-11-20T22:05:53;2.13;;;1.50;;
19402;SDS011;9837;48.888;8.998;2022-11-20T22:08:32;1.00;;;1.00;;
19402;SDS011;9837;48.888;8.998;2022-11-20T22:11:05;3.23;;;1.00;;
19402;SDS011;9837;48.888;8.998;2022-11-20T22:13:33;3.90;;;1.50;;
19402;SDS011;9837;48.888;8.998;2022-11-20T22:16:18;1.23;;;1.10;;
19402;SDS011;9837;48.888;8.998;2022-11-20T22:18:51;1.67;;;1.30;;
19402;SDS011;9837;48.888;8.998;2022-11-20T22:21:27;1.00;;;0.90;;
19402;SDS011;9837;48.888;8.998;2022-11-20T22:23:57;1.47;;;1.30;;
19402;SDS011;9837;48.888;8.998;2022-11-20T22:26:29;2.50;;;1.30;;
19402;SDS011;9837;48.888;8.998;2022-11-20T22:28:56;3.10;;;1.37;;
19402;SDS011;9837;48.888;8.998;2022-11-20T22:32:01;2.00;;;1.50;;
19402;SDS011;9837;48.888;8.998;2022-11-20T22:34:54;4.17;;;1.10;;
19402;SDS011;9837;48.888;8.998;2022-11-20T22:37:20;3.73;;;1.00;;
19402;SDS011;9837;48.888;8.998;2022-11-20T22:39:46;2.27;;;0.90;;
19402;SDS011;9837;48.888;8.998;2022-11-20T22:42:24;3.67;;;1.27;;
19402;SDS011;9837;48.888;8.998;2022-11-20T22:44:55;1.23;;;0.90;;
19402;SDS011;9837;48.888;8.998;2022-11-20T22:47:21;2.10;;;1.10;;
19402;SDS011;9837;48.888;8.998;2022-11-20T22:49:46;3.63;;;1.10;;
19402;SDS011;9837;48.888;8.998;2022-11-20T22:52:12;2.33;;;1.57;;